YAUG weather

Augusta Airport
Western Australia, Australia

Public forecast

Using degrees Celsius for public forecast. Weather courtesy of forecast.io.

METAR (pilot weather report)

Closest report is Albany Airport, 135.8 nm (251.5 km) ESE. Retrieved 2019/03/26 03:00 UTC (51 minutes ago):

YABA 260300Z AUTO 03009KT 9999 // NCD 22/11 Q1021

TAF (pilot weather forecast)

Forecast is more than 12 hours old.

Closest forecast is Perth Jandakot Airport, 141.1 nm (261.3 km) NNE. Retrieved 2019/03/25 00:00 UTC (1 day ago):

TAF YPJT 252228Z 2600/2618 08012KT CAVOK FM260100 05012KT CAVOK FM260900 20010KT CAVOK FM261300 VRB05KT CAVOK